createdAt,value
2017-05-28T00:00:49.594Z,37.60
2017-05-28T00:03:18.598Z,37.50
2017-05-28T00:05:47.659Z,37.40
2017-05-28T00:08:16.708Z,37.40
2017-05-28T00:10:45.724Z,37.50
2017-05-28T00:13:14.772Z,37.50
2017-05-28T00:15:43.784Z,37.40
2017-05-28T00:18:12.815Z,37.50
2017-05-28T00:20:41.845Z,37.50
2017-05-28T00:23:10.881Z,37.50
2017-05-28T00:25:39.943Z,37.50
2017-05-28T00:28:08.951Z,37.60
2017-05-28T00:30:57.681Z,38.40
2017-05-28T00:33:26.700Z,37.70
2017-05-28T00:35:55.721Z,37.70
2017-05-28T00:38:24.751Z,37.80
2017-05-28T00:40:53.764Z,37.80
2017-05-28T00:43:22.812Z,37.70
2017-05-28T00:45:51.837Z,37.80
2017-05-28T00:48:20.875Z,38.00
2017-05-28T00:50:49.943Z,38.60
2017-05-28T00:53:18.973Z,38.50
2017-05-28T00:55:47.992Z,38.80
2017-05-28T00:58:17.019Z,38.80
2017-05-28T01:00:46.055Z,38.80
2017-05-28T01:03:14.319Z,38.80
2017-05-28T01:05:43.336Z,38.60
2017-05-28T01:08:12.420Z,38.70
2017-05-28T01:10:41.447Z,38.70
2017-05-28T01:13:10.437Z,38.80
2017-05-28T01:15:39.468Z,38.60
2017-05-28T01:18:16.291Z,38.30
2017-05-28T01:20:45.328Z,38.30
2017-05-28T01:23:14.344Z,38.50
2017-05-28T01:25:43.363Z,38.80
2017-05-28T01:28:12.386Z,38.80
2017-05-28T01:31:00.613Z,38.80
2017-05-28T01:33:29.645Z,38.80
2017-05-28T01:35:58.674Z,38.80
2017-05-28T01:38:27.701Z,38.80
2017-05-28T01:40:57.257Z,38.70
2017-05-28T01:43:26.276Z,38.70
2017-05-28T01:45:55.317Z,39.00
2017-05-28T01:48:24.373Z,38.70
2017-05-28T01:50:53.375Z,38.70
2017-05-28T01:53:22.396Z,38.70
2017-05-28T01:55:51.419Z,38.60
2017-05-28T01:58:20.446Z,38.60
2017-05-28T02:00:49.468Z,38.60
2017-05-28T02:03:18.484Z,38.60
2017-05-28T02:05:47.508Z,38.60
2017-05-28T02:08:16.565Z,39.20
2017-05-28T02:10:45.581Z,39.30
2017-05-28T02:13:14.604Z,39.20
2017-05-28T02:15:43.628Z,39.00
2017-05-28T02:18:12.659Z,39.20
2017-05-28T02:20:41.696Z,39.20
2017-05-28T02:23:10.725Z,39.30
2017-05-28T02:25:39.757Z,39.60
2017-05-28T02:28:08.817Z,40.20
2017-05-28T02:30:37.832Z,40.10
2017-05-28T02:33:06.849Z,40.10
2017-05-28T02:35:36.161Z,40.20
2017-05-28T02:38:05.165Z,40.50
2017-05-28T02:40:34.205Z,40.40
2017-05-28T02:43:03.215Z,40.30
2017-05-28T02:45:32.245Z,40.50
2017-05-28T02:51:02.177Z,40.70
2017-05-28T02:53:31.217Z,40.80
2017-05-28T02:56:00.232Z,41.20
2017-05-28T02:58:29.266Z,41.20
2017-05-28T03:00:58.281Z,41.30
2017-05-28T03:03:27.309Z,41.80
2017-05-28T03:05:56.325Z,42.30
2017-05-28T03:08:25.359Z,42.00
2017-05-28T03:10:54.366Z,42.40
2017-05-28T03:13:23.395Z,42.30
2017-05-28T03:15:52.421Z,42.70
2017-05-28T03:18:21.428Z,42.70
2017-05-28T03:20:50.448Z,42.70
2017-05-28T03:23:19.480Z,42.70
2017-05-28T03:25:48.473Z,42.70
2017-05-28T03:28:17.877Z,42.70
2017-05-28T03:30:46.881Z,42.70
2017-05-28T03:33:15.919Z,42.70
2017-05-28T03:35:44.936Z,42.70
2017-05-28T03:38:13.951Z,42.70
2017-05-28T03:40:42.981Z,42.70
2017-05-28T03:43:12.005Z,43.10
2017-05-28T03:45:41.033Z,43.20
2017-05-28T03:48:10.032Z,43.30
2017-05-28T03:50:39.071Z,43.40
2017-05-28T03:53:08.115Z,43.30
2017-05-28T03:55:37.127Z,43.40
2017-05-28T03:58:06.166Z,43.60
2017-05-28T04:00:35.168Z,43.60
2017-05-28T04:03:05.671Z,43.90
2017-05-28T04:05:34.719Z,44.20
2017-05-28T04:08:03.738Z,44.30
2017-05-28T04:10:32.770Z,44.30
2017-05-28T04:13:01.800Z,44.70
2017-05-28T04:15:31.257Z,44.70
2017-05-28T04:18:00.282Z,44.70
2017-05-28T04:20:29.292Z,44.90
2017-05-28T04:22:58.301Z,45.50
2017-05-28T04:25:27.334Z,45.50
2017-05-28T04:27:56.345Z,45.90
2017-05-28T04:30:25.409Z,46.50
2017-05-28T04:32:54.424Z,46.70
2017-05-28T04:35:23.456Z,46.70
2017-05-28T04:37:52.504Z,46.80
2017-05-28T04:40:21.548Z,46.70
2017-05-28T04:42:50.573Z,46.70
2017-05-28T04:45:19.619Z,46.70
2017-05-28T04:47:48.644Z,47.30
2017-05-28T04:50:17.665Z,47.90
2017-05-28T04:52:46.695Z,48.40
2017-05-28T04:55:15.730Z,48.70
2017-05-28T04:57:44.763Z,48.90
2017-05-28T05:00:13.807Z,49.00
2017-05-28T05:02:42.856Z,49.00
2017-05-28T05:05:12.053Z,49.30
2017-05-28T05:07:41.107Z,49.60
2017-05-28T05:10:10.141Z,49.60
2017-05-28T05:12:39.166Z,49.50
2017-05-28T05:15:08.191Z,50.00
2017-05-28T05:17:37.296Z,50.00
2017-05-28T05:20:06.299Z,50.50
2017-05-28T05:22:48.179Z,49.80
2017-05-28T05:25:17.208Z,49.40
2017-05-28T05:27:46.241Z,49.30
2017-05-28T05:30:15.276Z,49.30
2017-05-28T05:32:44.301Z,49.20
2017-05-28T05:35:13.361Z,49.40
2017-05-28T05:37:42.394Z,49.50
2017-05-28T05:40:11.422Z,49.80
2017-05-28T05:42:40.460Z,49.90
2017-05-28T05:45:09.480Z,50.00
2017-05-28T05:47:38.696Z,50.10
2017-05-28T05:50:07.710Z,50.00
2017-05-28T05:52:36.760Z,50.20
2017-05-28T05:55:05.812Z,50.40
2017-05-28T05:57:34.836Z,50.90
2017-05-28T06:00:03.862Z,50.80
2017-05-28T06:02:32.959Z,50.90
2017-05-28T06:05:01.984Z,50.90
2017-05-28T06:07:31.008Z,50.80
2017-05-28T06:10:00.044Z,50.50
2017-05-28T06:12:29.062Z,51.40
2017-05-28T06:14:58.135Z,51.00
2017-05-28T06:17:27.230Z,51.10
2017-05-28T06:19:56.233Z,51.00
2017-05-28T06:22:25.299Z,51.10
2017-05-28T06:24:54.339Z,51.00
2017-05-28T06:27:23.366Z,51.10
2017-05-28T06:29:52.416Z,50.90
2017-05-28T06:32:21.426Z,51.10
2017-05-28T06:34:50.449Z,51.00
2017-05-28T06:37:19.493Z,51.50
2017-05-28T06:39:48.534Z,52.50
2017-05-28T06:42:17.552Z,52.50
2017-05-28T06:44:46.603Z,52.40
2017-05-28T06:47:15.624Z,52.80
2017-05-28T06:49:44.676Z,53.20
2017-05-28T06:52:13.729Z,53.30
2017-05-28T06:54:42.775Z,53.60
2017-05-28T06:57:11.798Z,53.70
2017-05-28T06:59:40.825Z,53.90
2017-05-28T07:02:09.866Z,54.30
2017-05-28T07:04:38.888Z,54.70
2017-05-28T07:07:07.928Z,54.90
2017-05-28T07:09:36.966Z,54.80
2017-05-28T07:12:06.074Z,55.30
2017-05-28T07:14:36.121Z,54.80
2017-05-28T07:17:05.148Z,55.30
2017-05-28T07:19:34.181Z,55.60
2017-05-28T07:22:03.220Z,55.10
2017-05-28T07:24:32.267Z,54.80
2017-05-28T07:27:01.292Z,55.10
2017-05-28T07:29:30.311Z,56.20
2017-05-28T07:31:59.361Z,56.50
2017-05-28T07:34:28.419Z,56.30
2017-05-28T07:36:57.446Z,56.20
2017-05-28T07:39:26.460Z,55.70
2017-05-28T07:41:55.508Z,56.10
2017-05-28T07:44:25.914Z,55.60
2017-05-28T07:46:54.953Z,55.20
2017-05-28T07:49:23.996Z,54.60
2017-05-28T07:51:53.061Z,54.10
2017-05-28T07:54:22.105Z,53.80
2017-05-28T07:56:51.141Z,54.00
2017-05-28T07:59:20.203Z,53.30
2017-05-28T08:01:49.347Z,52.60
2017-05-28T08:04:18.442Z,52.30
2017-05-28T08:06:47.462Z,52.50
2017-05-28T08:09:16.484Z,52.70
2017-05-28T08:11:45.511Z,51.20
2017-05-28T08:14:14.566Z,51.40
2017-05-28T08:16:43.837Z,51.20
2017-05-28T08:19:12.861Z,48.50
2017-05-28T08:21:41.887Z,48.30
2017-05-28T08:24:24.382Z,48.40
2017-05-28T08:26:53.465Z,47.30
2017-05-28T08:29:22.472Z,46.20
2017-05-28T08:31:51.532Z,45.70
2017-05-28T08:34:20.530Z,46.10
2017-05-28T08:36:49.545Z,43.90
2017-05-28T08:39:18.579Z,43.80
2017-05-28T08:41:47.676Z,43.00
2017-05-28T08:44:16.693Z,43.00
2017-05-28T08:46:45.738Z,43.00
2017-05-28T08:49:14.797Z,43.70
2017-05-28T08:51:43.842Z,43.30
2017-05-28T08:54:12.870Z,43.30
2017-05-28T08:56:41.893Z,43.40
2017-05-28T08:59:17.357Z,43.30
2017-05-28T09:01:46.394Z,43.30
2017-05-28T09:04:15.420Z,43.20
2017-05-28T09:06:44.571Z,43.20
2017-05-28T09:09:13.576Z,43.70
2017-05-28T09:11:42.593Z,47.40
2017-05-28T09:14:11.672Z,49.10
2017-05-28T09:16:40.689Z,50.70
2017-05-28T09:19:09.761Z,50.90
2017-05-28T09:21:38.977Z,51.00
2017-05-28T09:24:08.138Z,50.90
2017-05-28T09:26:37.167Z,52.40
2017-05-28T09:29:06.253Z,53.40
2017-05-28T09:31:35.257Z,54.00
2017-05-28T09:34:04.293Z,54.70
2017-05-28T09:36:33.367Z,55.20
2017-05-28T09:39:02.506Z,55.40
2017-05-28T09:41:31.568Z,55.50
2017-05-28T09:44:00.614Z,55.40
2017-05-28T09:46:29.699Z,55.40
2017-05-28T09:48:58.737Z,56.30
2017-05-28T09:51:28.427Z,56.60
2017-05-28T09:53:57.472Z,57.30
2017-05-28T09:56:26.527Z,57.80
2017-05-28T09:58:55.535Z,58.60
2017-05-28T10:01:24.608Z,59.20
2017-05-28T10:03:53.669Z,59.20
2017-05-28T10:06:22.722Z,59.30
2017-05-28T10:08:52.015Z,59.50
2017-05-28T10:11:21.806Z,59.10
2017-05-28T10:13:50.845Z,58.80
2017-05-28T10:16:19.875Z,58.30
2017-05-28T10:18:48.952Z,58.20
2017-05-28T10:21:17.983Z,57.70
2017-05-28T10:23:47.010Z,57.20
2017-05-28T10:26:16.114Z,57.00
2017-05-28T10:28:45.136Z,57.30
2017-05-28T10:31:14.861Z,57.70
2017-05-28T10:33:45.042Z,58.00
2017-05-28T10:36:14.108Z,59.20
2017-05-28T10:38:43.175Z,59.30
2017-05-28T10:41:12.208Z,59.70
2017-05-28T10:43:41.348Z,59.70
2017-05-28T10:46:10.446Z,59.60
2017-05-28T10:48:39.490Z,61.00
2017-05-28T10:51:08.569Z,60.50
2017-05-28T10:53:37.621Z,61.00
2017-05-28T10:56:06.691Z,61.10
2017-05-28T10:58:36.435Z,61.40
2017-05-28T11:01:05.463Z,61.90
2017-05-28T11:03:34.527Z,61.90
2017-05-28T11:06:03.642Z,61.80
2017-05-28T11:08:32.724Z,62.00
2017-05-28T11:11:01.808Z,62.30
2017-05-28T11:13:30.857Z,63.40
2017-05-28T11:15:59.910Z,63.30
2017-05-28T11:18:38.666Z,63.20
2017-05-28T11:21:08.284Z,63.00
2017-05-28T11:23:37.426Z,63.20
2017-05-28T11:26:06.540Z,62.70
2017-05-28T11:28:35.700Z,61.90
2017-05-28T11:31:04.782Z,61.60
2017-05-28T11:33:33.838Z,61.60
2017-05-28T11:36:02.907Z,60.80
2017-05-28T11:38:31.950Z,60.30
2017-05-28T11:41:01.068Z,60.50
2017-05-28T11:43:30.088Z,60.50
2017-05-28T11:45:59.604Z,60.70
2017-05-28T11:48:34.629Z,60.00
2017-05-28T11:51:03.695Z,60.00
2017-05-28T11:53:32.720Z,60.10
2017-05-28T11:56:01.789Z,60.40
2017-05-28T11:58:30.874Z,59.90
2017-05-28T12:01:00.017Z,60.00
2017-05-28T12:03:29.053Z,59.50
2017-05-28T12:05:58.088Z,59.30
2017-05-28T12:08:27.121Z,60.80
2017-05-28T12:10:56.146Z,60.20
2017-05-28T12:13:25.382Z,59.00
2017-05-28T12:15:54.418Z,59.20
2017-05-28T12:18:23.567Z,59.20
2017-05-28T12:20:52.631Z,58.90
2017-05-28T12:23:21.659Z,59.00
2017-05-28T12:25:50.758Z,58.50
2017-05-28T12:28:32.750Z,58.60
2017-05-28T12:31:01.950Z,58.00
2017-05-28T12:33:31.194Z,58.40
2017-05-28T12:36:00.609Z,57.90
2017-05-28T12:38:29.720Z,57.70
2017-05-28T12:40:58.760Z,57.50
2017-05-28T12:43:27.935Z,57.20
2017-05-28T12:45:56.934Z,57.00
2017-05-28T12:48:25.982Z,56.60
2017-05-28T12:51:11.607Z,56.80
2017-05-28T12:53:40.663Z,55.60
2017-05-28T12:56:09.677Z,54.90
2017-05-28T12:58:38.734Z,54.70
2017-05-28T13:01:07.785Z,55.20
2017-05-28T13:03:36.798Z,55.20
2017-05-28T13:06:05.828Z,55.40
2017-05-28T13:08:34.897Z,54.30
2017-05-28T13:11:03.930Z,54.30
2017-05-28T13:13:32.997Z,54.00
2017-05-28T13:16:02.155Z,54.40
2017-05-28T13:18:31.195Z,53.20
2017-05-28T13:21:00.343Z,51.50
2017-05-28T13:23:29.402Z,51.10
2017-05-28T13:25:58.433Z,52.10
2017-05-28T13:28:27.483Z,53.00
2017-05-28T13:30:57.921Z,52.00
2017-05-28T13:33:27.284Z,52.10
2017-05-28T13:35:56.556Z,52.20
2017-05-28T13:38:27.832Z,51.50
2017-05-28T13:40:57.726Z,51.70
2017-05-28T13:43:26.782Z,52.40
2017-05-28T13:45:55.857Z,53.00
2017-05-28T13:48:25.005Z,53.40
2017-05-28T13:50:54.304Z,53.50
2017-05-28T13:53:23.397Z,53.10
2017-05-28T13:55:52.505Z,52.20
2017-05-28T13:58:21.550Z,51.20
2017-05-28T14:00:49.810Z,50.80
2017-05-28T14:03:18.882Z,52.60
2017-05-28T14:05:47.956Z,51.00
2017-05-28T14:08:17.055Z,49.00
2017-05-28T14:10:46.068Z,48.30
2017-05-28T14:13:15.112Z,48.10
2017-05-28T14:15:44.314Z,47.80
2017-05-28T14:18:13.370Z,48.00
2017-05-28T14:20:42.635Z,47.60
2017-05-28T14:23:11.688Z,47.70
2017-05-28T14:25:40.713Z,47.30
2017-05-28T14:28:09.790Z,48.00
2017-05-28T14:30:38.860Z,47.50
2017-05-28T14:33:07.937Z,47.50
2017-05-28T14:35:37.102Z,47.40
2017-05-28T14:38:06.156Z,46.40
2017-05-28T14:40:35.190Z,46.20
2017-05-28T14:43:04.593Z,46.70
2017-05-28T14:45:33.739Z,46.20
2017-05-28T14:48:02.810Z,46.80
2017-05-28T14:50:31.839Z,46.80
2017-05-28T14:53:00.895Z,46.90
2017-05-28T14:55:29.925Z,46.60
2017-05-28T14:57:58.970Z,46.70
2017-05-28T15:00:28.108Z,47.60
2017-05-28T15:02:57.163Z,47.20
2017-05-28T15:05:26.179Z,47.80
2017-05-28T15:07:55.273Z,47.40
2017-05-28T15:10:24.337Z,47.20
2017-05-28T15:12:53.340Z,47.10
2017-05-28T15:15:22.381Z,46.60
2017-05-28T15:17:51.450Z,46.80
2017-05-28T15:20:20.470Z,47.10
2017-05-28T15:22:49.536Z,47.00
2017-05-28T15:25:18.571Z,47.00
2017-05-28T15:27:47.637Z,46.80
2017-05-28T15:30:22.849Z,46.80
2017-05-28T15:32:51.939Z,46.70
2017-05-28T15:35:20.971Z,46.80
2017-05-28T15:37:50.122Z,46.80
2017-05-28T15:40:19.231Z,46.50
2017-05-28T15:42:48.313Z,45.70
2017-05-28T15:45:17.410Z,46.20
2017-05-28T15:47:46.474Z,46.60
2017-05-28T15:50:15.545Z,45.60
2017-05-28T15:52:44.615Z,45.80
2017-05-28T15:55:13.665Z,45.30
2017-05-28T15:57:42.751Z,45.10
2017-05-28T16:00:11.802Z,45.10
2017-05-28T16:02:40.838Z,45.10
2017-05-28T16:05:09.894Z,45.10
2017-05-28T16:07:38.943Z,44.70
2017-05-28T16:10:07.981Z,44.30
2017-05-28T16:12:37.153Z,44.30
2017-05-28T16:15:06.190Z,44.40
2017-05-28T16:17:35.225Z,44.80
2017-05-28T16:20:04.299Z,44.50
2017-05-28T16:22:33.351Z,44.30
2017-05-28T16:25:02.407Z,44.30
2017-05-28T16:27:32.358Z,44.40
2017-05-28T16:30:01.742Z,45.30
2017-05-28T16:32:31.688Z,45.10
2017-05-28T16:35:00.831Z,45.10
2017-05-28T16:37:30.055Z,45.10
2017-05-28T16:39:59.289Z,45.10
2017-05-28T16:42:28.367Z,45.00
2017-05-28T16:44:57.548Z,45.70
2017-05-28T16:47:26.589Z,45.10
2017-05-28T16:49:55.661Z,45.10
2017-05-28T16:52:24.792Z,45.10
2017-05-28T16:54:53.866Z,45.10
2017-05-28T16:57:22.954Z,45.10
2017-05-28T16:59:52.091Z,45.00
2017-05-28T17:02:21.275Z,45.00
2017-05-28T17:04:50.341Z,44.90
2017-05-28T17:07:20.596Z,44.90
2017-05-28T17:09:49.647Z,45.00
2017-05-28T17:12:18.703Z,45.10
2017-05-28T17:14:47.813Z,45.00
2017-05-28T17:20:17.639Z,44.80
2017-05-28T17:22:46.771Z,45.80
2017-05-28T17:25:15.835Z,44.90
2017-05-28T17:27:44.901Z,44.80
2017-05-28T17:30:14.010Z,44.90
2017-05-28T17:32:43.061Z,44.80
2017-05-28T17:35:12.162Z,44.90
2017-05-28T17:40:42.005Z,44.90
2017-05-28T17:43:11.248Z,44.80
2017-05-28T17:45:40.365Z,44.80
2017-05-28T17:48:09.490Z,44.90
2017-05-28T17:50:38.661Z,44.80
2017-05-28T17:53:07.825Z,44.80
2017-05-28T17:55:36.882Z,44.90
2017-05-28T17:58:05.954Z,44.80
2017-05-28T18:00:35.094Z,44.90
2017-05-28T18:03:04.329Z,44.80
2017-05-28T18:05:33.432Z,44.40
2017-05-28T18:08:02.486Z,44.50
2017-05-28T18:10:31.546Z,44.70
2017-05-28T18:13:00.775Z,44.70
2017-05-28T18:15:29.836Z,44.70
2017-05-28T18:17:59.039Z,44.70
2017-05-28T18:20:28.192Z,45.40
2017-05-28T18:22:57.254Z,45.00
2017-05-28T18:25:29.112Z,44.70
2017-05-28T18:27:58.533Z,44.70
2017-05-28T18:30:27.906Z,44.70
2017-05-28T18:32:57.040Z,45.20
2017-05-28T18:35:26.180Z,45.40
2017-05-28T18:37:55.223Z,45.40
2017-05-28T18:40:24.280Z,45.60
2017-05-28T18:42:53.395Z,45.40
2017-05-28T18:45:22.600Z,45.60
2017-05-28T18:47:51.797Z,45.80
2017-05-28T18:50:20.841Z,45.90
2017-05-28T18:52:49.939Z,46.10
2017-05-28T18:55:19.051Z,46.20
2017-05-28T18:57:48.076Z,46.30
2017-05-28T19:00:17.211Z,46.00
2017-05-28T19:02:46.266Z,46.90
2017-05-28T19:05:15.361Z,47.20
2017-05-28T19:07:44.559Z,47.40
2017-05-28T19:10:13.707Z,47.90
2017-05-28T19:12:43.240Z,47.90
2017-05-28T19:15:13.629Z,47.40
2017-05-28T19:17:43.708Z,47.20
2017-05-28T19:20:12.953Z,47.00
2017-05-28T19:22:42.309Z,46.80
2017-05-28T19:25:11.363Z,46.80
2017-05-28T19:27:40.583Z,47.00
2017-05-28T19:30:09.717Z,47.30
2017-05-28T19:32:39.225Z,47.40
2017-05-28T19:35:08.905Z,47.80
2017-05-28T19:37:38.103Z,48.40
2017-05-28T19:40:09.088Z,49.10
2017-05-28T19:42:38.222Z,49.30
2017-05-28T19:45:07.310Z,49.90
2017-05-28T19:47:36.445Z,50.30
2017-05-28T19:50:05.552Z,50.50
2017-05-28T19:52:34.829Z,50.60
2017-05-28T19:55:03.928Z,50.80
2017-05-28T19:57:33.152Z,51.00
2017-05-28T20:00:02.262Z,51.10
2017-05-28T20:02:31.419Z,51.20
2017-05-28T20:05:00.545Z,51.20
2017-05-28T20:07:31.268Z,51.20
2017-05-28T20:10:00.330Z,50.80
2017-05-28T20:12:29.418Z,50.90
2017-05-28T20:14:58.544Z,50.90
2017-05-28T20:17:27.636Z,51.00
2017-05-28T20:19:56.739Z,51.10
2017-05-28T20:22:25.797Z,50.60
2017-05-28T20:24:54.844Z,51.30
2017-05-28T20:27:23.925Z,51.60
2017-05-28T20:29:52.960Z,52.00
2017-05-28T20:32:22.046Z,52.10
2017-05-28T20:34:51.181Z,52.50
2017-05-28T20:37:20.249Z,52.70
2017-05-28T20:39:49.277Z,52.70
2017-05-28T20:42:18.499Z,52.70
2017-05-28T20:44:47.555Z,52.60
2017-05-28T20:47:16.629Z,52.10
2017-05-28T20:49:45.717Z,52.00
2017-05-28T20:52:14.804Z,52.70
2017-05-28T20:54:43.913Z,52.70
2017-05-28T20:57:12.955Z,52.60
2017-05-28T20:59:42.001Z,52.60
2017-05-28T21:02:11.074Z,52.60
2017-05-28T21:04:40.192Z,52.60
2017-05-28T21:07:09.221Z,52.60
2017-05-28T21:09:38.346Z,52.70
2017-05-28T21:12:07.398Z,52.70
2017-05-28T21:14:36.487Z,52.70
2017-05-28T21:17:05.628Z,52.60
2017-05-28T21:19:34.688Z,52.60
2017-05-28T21:22:03.747Z,52.50
2017-05-28T21:24:32.809Z,52.50
2017-05-28T21:27:01.899Z,52.50
2017-05-28T21:29:30.989Z,53.00
2017-05-28T21:32:00.057Z,53.20
2017-05-28T21:34:29.096Z,53.20
2017-05-28T21:36:58.119Z,53.30
2017-05-28T21:39:27.166Z,53.20
2017-05-28T21:41:56.195Z,53.20
2017-05-28T21:44:25.299Z,53.20
2017-05-28T21:46:54.296Z,53.20
2017-05-28T21:49:23.336Z,54.20
2017-05-28T21:51:52.378Z,53.50
2017-05-28T21:54:21.481Z,53.40
2017-05-28T21:56:50.526Z,53.30
2017-05-28T21:59:19.572Z,53.50
2017-05-28T22:01:48.614Z,53.80
2017-05-28T22:04:17.650Z,53.80
2017-05-28T22:06:46.665Z,53.90
2017-05-28T22:09:15.710Z,54.10
2017-05-28T22:11:44.801Z,54.70
2017-05-28T22:14:13.817Z,54.70
2017-05-28T22:16:42.865Z,54.90
2017-05-28T22:19:11.901Z,54.90
2017-05-28T22:21:40.949Z,55.00
2017-05-28T22:24:10.895Z,54.80
2017-05-28T22:26:39.949Z,55.90
2017-05-28T22:29:08.969Z,55.00
2017-05-28T22:31:38.010Z,55.10
2017-05-28T22:34:07.054Z,55.00
2017-05-28T22:36:36.117Z,55.10
2017-05-28T22:39:05.159Z,55.10
2017-05-28T22:41:34.210Z,55.10
2017-05-28T22:44:03.247Z,55.10
2017-05-28T22:46:32.261Z,55.20
2017-05-28T22:49:01.306Z,55.30
2017-05-28T22:51:30.340Z,55.50
2017-05-28T22:53:59.367Z,55.50
2017-05-28T22:56:28.388Z,55.40
2017-05-28T22:58:57.452Z,55.50
2017-05-28T23:01:50.084Z,56.10
2017-05-28T23:04:19.179Z,56.40
2017-05-28T23:06:48.197Z,56.20
2017-05-28T23:09:17.227Z,56.20
2017-05-28T23:11:46.281Z,56.20
2017-05-28T23:14:15.317Z,56.20
2017-05-28T23:16:44.357Z,56.20
2017-05-28T23:19:13.393Z,56.20
2017-05-28T23:21:42.417Z,56.20
2017-05-28T23:24:11.432Z,56.20
2017-05-28T23:26:40.478Z,56.20
2017-05-28T23:29:28.645Z,56.20
2017-05-28T23:31:57.746Z,56.20
2017-05-28T23:34:26.769Z,56.50
2017-05-28T23:36:55.790Z,56.70
2017-05-28T23:39:24.854Z,56.70
2017-05-28T23:41:53.888Z,56.90
2017-05-28T23:44:22.896Z,56.80
2017-05-28T23:46:51.939Z,56.90
2017-05-28T23:49:20.974Z,57.00
2017-05-28T23:51:49.984Z,57.00
2017-05-28T23:54:19.044Z,57.00
2017-05-28T23:56:48.088Z,57.00
2017-05-28T23:59:17.109Z,57.10
